AYMH/HGU METAR and TAF weather

Enter ICAO airport designator
Station Type Date Time Source
AYMH METAR 2021/09/28 09:00 UTC NOAA

AYMH 280900Z VRB04KT 9999 SCT050 21/15 Q1020=


Station Type Date Time Source
AYMH Decoded METAR 2021/09/28 09:00 UTC NOAA

Station name not available
Sep 28, 2021 - 05:00 AM EDT / 2021.09.28 0900 UTC
Wind: Variable at 5 MPH (4 KT):0
Visibility: greater than 7 mile(s):0
Sky conditions: partly cloudy
Temperature: 69 F (21 C)
Dew Point: 59 F (15 C)
Relative Humidity: 68%
Pressure (altimeter): 30.12 in. Hg (1020 hPa)
ob: AYMH 280900Z VRB04KT 9999 SCT050 21/15 Q1020=
cycle: 9

Station Type Date Time Source
AYMH TAF UTC NOAA

Error!

Example: see airport list